Time;durP1;ratioP1;P1;durP2;ratioP2;P2;SDS_P1;SDS_P2;PMS_P1;PMS_P2;Temp;Humidity;BMP_temperature;BMP_pressure;BME280_temperature;BME280_humidity;BME280_pressure;Samples;Min_cycle;Max_cycle;Signal;HPM_P1;HPM_P2
2022/09/15 00:00:55;;;;;;;5.03;2.97;;;15.60;96.90;;;;;;5039505;28;20626;-69
2022/09/15 00:03:22;;;;;;;6.30;3.25;;;15.60;96.70;;;;;;5039825;28;20029;-71
2022/09/15 00:05:49;;;;;;;4.82;2.95;;;15.50;96.90;;;;;;5037956;28;20120;-70
2022/09/15 00:08:15;;;;;;;6.88;3.47;;;15.50;97.00;;;;;;5035944;28;20038;-70
2022/09/15 00:11:05;;;;;;;8.68;4.20;;;15.50;97.00;;;;;;5036200;28;20029;-70
2022/09/15 00:13:33;;;;;;;4.28;2.58;;;15.50;96.90;;;;;;5035391;28;20040;-70
2022/09/15 00:15:58;;;;;;;4.35;2.63;;;15.50;96.90;;;;;;5034869;28;20030;-70
2022/09/15 00:18:24;;;;;;;6.72;3.10;;;15.50;97.00;;;;;;5041760;28;20056;-70
2022/09/15 00:20:50;;;;;;;5.32;3.00;;;15.40;97.10;;;;;;5037299;28;20505;-70
2022/09/15 00:23:17;;;;;;;3.70;2.85;;;15.50;97.10;;;;;;5033339;28;20026;-71
2022/09/15 00:25:52;;;;;;;4.07;2.83;;;15.50;97.10;;;;;;5036848;28;20025;-71
2022/09/15 00:28:20;;;;;;;8.90;3.42;;;15.40;97.00;;;;;;5036274;28;20029;-70
2022/09/15 00:30:48;;;;;;;6.50;3.90;;;15.40;97.00;;;;;;5034652;28;20448;-70
2022/09/15 00:33:15;;;;;;;8.32;4.13;;;15.40;97.10;;;;;;5033386;28;20442;-70
2022/09/15 00:35:43;;;;;;;6.78;3.45;;;15.40;97.00;;;;;;5034170;28;20033;-72
2022/09/15 00:38:11;;;;;;;13.38;3.92;;;15.40;97.00;;;;;;5040115;28;20489;-70
2022/09/15 00:40:49;;;;;;;6.20;3.97;;;15.40;96.90;;;;;;5039555;28;20570;-70
2022/09/15 00:43:17;;;;;;;5.70;3.17;;;15.40;96.70;;;;;;5037230;28;20033;-71
2022/09/15 00:45:43;;;;;;;6.03;3.60;;;15.40;96.60;;;;;;5035699;28;20033;-70
2022/09/15 00:48:17;;;;;;;7.40;3.10;;;15.30;96.50;;;;;;5033896;28;20037;-71
2022/09/15 00:50:47;;;;;;;7.22;3.70;;;15.30;96.60;;;;;;5033778;28;20045;-71
2022/09/15 00:53:15;;;;;;;9.82;3.63;;;15.20;96.50;;;;;;5032251;28;20068;-70
2022/09/15 00:55:46;;;;;;;5.35;3.47;;;15.20;96.40;;;;;;5041739;28;20124;-70
2022/09/15 00:58:19;;;;;;;6.05;3.08;;;15.20;96.40;;;;;;5041586;28;20032;-70
2022/09/15 01:00:55;;;;;;;5.18;2.83;;;15.10;96.40;;;;;;5044257;28;20033;-71
2022/09/15 01:03:23;;;;;;;6.68;3.13;;;15.10;96.50;;;;;;5042565;28;20037;-71
2022/09/15 01:05:54;;;;;;;5.68;3.30;;;15.00;96.50;;;;;;5039398;28;20052;-71
2022/09/15 01:08:35;;;;;;;7.35;3.10;;;15.00;96.60;;;;;;5038323;28;20037;-70
2022/09/15 01:11:01;;;;;;;7.57;2.85;;;14.90;96.70;;;;;;5034197;28;20044;-70
2022/09/15 01:13:28;;;;;;;4.80;3.33;;;14.90;96.70;;;;;;5041548;28;20040;-72
2022/09/15 01:16:21;;;;;;;5.80;2.83;;;14.90;96.80;;;;;;5040861;28;20123;-70
2022/09/15 01:19:10;;;;;;;5.05;3.17;;;14.90;96.90;;;;;;5043681;28;20025;-71
2022/09/15 01:21:53;;;;;;;9.10;3.78;;;14.80;97.00;;;;;;5034690;28;20040;-71
2022/09/15 01:24:34;;;;;;;6.90;3.67;;;14.80;97.20;;;;;;5039022;28;20022;-70
2022/09/15 01:27:18;;;;;;;8.00;3.75;;;14.80;97.20;;;;;;5035849;28;20033;-70
2022/09/15 01:29:50;;;;;;;5.25;3.22;;;14.80;97.40;;;;;;5037183;28;20120;-71
2022/09/15 01:33:02;;;;;;;10.27;4.32;;;14.80;97.30;;;;;;5039873;28;20048;-71
2022/09/15 01:35:53;;;;;;;7.93;4.05;;;14.80;97.50;;;;;;5040429;28;20029;-71
2022/09/15 01:38:25;;;;;;;7.68;3.92;;;14.90;97.50;;;;;;5040503;28;20033;-71
2022/09/15 01:41:19;;;;;;;8.57;4.22;;;14.90;97.50;;;;;;5039534;28;20025;-70
2022/09/15 01:44:08;;;;;;;8.23;3.70;;;14.90;97.40;;;;;;5035657;28;20599;-71
2022/09/15 01:46:39;;;;;;;7.55;3.47;;;14.90;97.30;;;;;;5037652;28;20032;-70
2022/09/15 01:49:09;;;;;;;6.50;3.10;;;14.90;97.30;;;;;;5033211;28;20060;-71
2022/09/15 01:51:37;;;;;;;7.90;4.10;;;14.90;97.20;;;;;;5038397;28;20029;-70
2022/09/15 01:54:05;;;;;;;5.68;3.78;;;14.90;97.30;;;;;;5041006;28;20767;-71
2022/09/15 01:56:31;;;;;;;6.85;4.10;;;14.90;97.20;;;;;;5040477;28;20025;-70
2022/09/15 01:58:57;;;;;;;5.97;3.90;;;14.90;97.40;;;;;;5038620;28;20036;-71
2022/09/15 02:01:39;;;;;;;5.85;3.00;;;14.90;97.40;;;;;;5038132;28;20029;-70
2022/09/15 02:04:28;;;;;;;9.25;4.00;;;14.90;97.50;;;;;;5037541;28;20042;-71
2022/09/15 02:07:10;;;;;;;7.65;3.75;;;14.90;97.60;;;;;;5036482;28;20037;-73
2022/09/15 02:09:49;;;;;;;9.43;4.50;;;15.00;97.60;;;;;;5031266;28;20033;-71
2022/09/15 02:12:19;;;;;;;8.75;3.92;;;15.00;97.50;;;;;;5041356;28;20047;-69
2022/09/15 02:14:47;;;;;;;8.57;4.55;;;15.10;97.50;;;;;;5040705;28;20025;-71
2022/09/15 02:17:18;;;;;;;9.68;3.70;;;15.10;97.40;;;;;;5038379;28;20710;-71
2022/09/15 02:19:52;;;;;;;13.07;3.88;;;15.20;97.40;;;;;;5034764;28;20086;-70
2022/09/15 02:22:31;;;;;;;5.30;3.13;;;15.20;97.30;;;;;;5035445;28;20033;-71
2022/09/15 02:25:04;;;;;;;7.55;3.30;;;15.20;97.30;;;;;;5032664;28;20033;-70
2022/09/15 02:27:37;;;;;;;5.97;3.20;;;15.20;97.30;;;;;;5034444;28;20025;-72
2022/09/15 02:30:11;;;;;;;3.88;2.80;;;15.20;97.30;;;;;;5037658;28;20560;-72
2022/09/15 02:32:40;;;;;;;6.75;3.35;;;15.20;97.30;;;;;;5033863;28;20447;-71
2022/09/15 02:35:08;;;;;;;3.15;2.22;;;15.20;97.20;;;;;;5037212;28;20033;-71
2022/09/15 02:37:36;;;;;;;6.78;3.05;;;15.20;97.20;;;;;;5037881;28;20040;-71
2022/09/15 02:40:03;;;;;;;6.22;2.95;;;15.30;97.20;;;;;;5033565;28;20033;-70
2022/09/15 02:42:30;;;;;;;7.13;3.30;;;15.30;97.10;;;;;;5035108;28;20025;-71
2022/09/15 02:44:59;;;;;;;5.70;3.00;;;15.30;97.30;;;;;;5031261;28;20183;-70
2022/09/15 02:47:27;;;;;;;4.10;2.55;;;15.30;96.90;;;;;;5033536;28;20025;-70
2022/09/15 02:49:53;;;;;;;7.03;3.65;;;15.30;96.80;;;;;;5040055;28;20029;-71
2022/09/15 02:52:19;;;;;;;4.68;3.20;;;15.30;96.70;;;;;;5039331;28;20770;-70
2022/09/15 02:54:45;;;;;;;8.25;2.78;;;15.30;96.60;;;;;;5038488;28;20071;-71
2022/09/15 02:57:12;;;;;;;4.57;2.85;;;15.20;96.50;;;;;;5035213;28;20123;-70
2022/09/15 03:02:23;;;;;;;7.43;3.08;;;15.10;96.20;;;;;;5036639;28;20028;-72
2022/09/15 03:04:49;;;;;;;6.47;3.22;;;15.00;96.20;;;;;;5030702;28;20036;-71
2022/09/15 03:07:17;;;;;;;5.68;2.85;;;15.00;96.10;;;;;;5038747;28;20044;-71
2022/09/15 03:09:43;;;;;;;7.82;2.85;;;14.90;96.10;;;;;;5038901;28;20063;-70
2022/09/15 03:12:08;;;;;;;4.32;2.90;;;14.90;96.00;;;;;;5037297;28;20036;-71
2022/09/15 03:14:34;;;;;;;5.95;3.00;;;14.80;96.00;;;;;;5037263;28;20024;-71
2022/09/15 03:17:02;;;;;;;6.85;3.22;;;14.80;96.10;;;;;;5035904;28;20029;-71
2022/09/15 03:19:27;;;;;;;5.55;2.50;;;14.70;96.10;;;;;;5034897;28;20930;-71
2022/09/15 03:21:53;;;;;;;7.85;3.38;;;14.60;96.10;;;;;;5029854;28;20025;-70
2022/09/15 03:24:19;;;;;;;8.10;3.22;;;14.60;96.20;;;;;;5031679;28;20033;-71
2022/09/15 03:26:45;;;;;;;6.78;3.50;;;14.50;96.20;;;;;;5039981;28;20669;-71
2022/09/15 03:29:11;;;;;;;5.90;3.08;;;14.40;96.30;;;;;;5037844;28;20586;-71
2022/09/15 03:31:37;;;;;;;6.10;3.45;;;14.40;96.40;;;;;;5037622;28;20028;-72
2022/09/15 03:34:03;;;;;;;6.25;2.63;;;14.40;96.50;;;;;;5030712;28;20037;-71
2022/09/15 03:36:29;;;;;;;5.45;2.70;;;14.40;96.60;;;;;;5035453;28;20099;-71
2022/09/15 03:38:57;;;;;;;7.93;3.17;;;14.30;96.70;;;;;;5032638;28;20029;-71
2022/09/15 03:41:23;;;;;;;5.60;3.40;;;14.30;96.70;;;;;;5032418;28;20108;-71
2022/09/15 03:43:49;;;;;;;5.80;3.53;;;14.30;96.80;;;;;;5033573;28;20037;-71
2022/09/15 03:46:15;;;;;;;7.07;3.60;;;14.30;97.00;;;;;;5039600;28;20040;-71
2022/09/15 03:48:41;;;;;;;8.98;3.80;;;14.30;97.00;;;;;;5040043;28;20032;-71
2022/09/15 03:51:11;;;;;;;7.38;3.65;;;14.30;96.90;;;;;;5038011;28;20044;-71
2022/09/15 03:53:39;;;;;;;3.28;2.55;;;14.20;97.00;;;;;;5037631;28;20033;-70
2022/09/15 03:56:25;;;;;;;5.18;2.85;;;14.20;97.00;;;;;;5034092;28;20034;-71
2022/09/15 03:58:51;;;;;;;9.45;3.88;;;14.10;97.10;;;;;;5035142;28;20048;-70
2022/09/15 04:01:18;;;;;;;8.52;3.25;;;14.20;97.10;;;;;;5032251;28;20040;-70
2022/09/15 04:03:44;;;;;;;5.82;2.85;;;14.20;97.00;;;;;;5039931;28;20074;-70
2022/09/15 04:06:10;;;;;;;6.88;3.72;;;14.10;97.00;;;;;;5039036;28;20753;-72
2022/09/15 04:08:36;;;;;;;6.00;3.30;;;14.10;97.10;;;;;;5038238;28;20063;-72
2022/09/15 04:11:10;;;;;;;7.07;3.60;;;14.00;97.10;;;;;;5032173;28;20021;-71
2022/09/15 04:13:38;;;;;;;5.32;2.92;;;14.00;97.20;;;;;;5035058;28;20714;-71
2022/09/15 04:16:06;;;;;;;6.13;3.33;;;14.00;97.30;;;;;;5037655;28;20106;-71
2022/09/15 04:18:33;;;;;;;5.03;2.88;;;14.00;97.30;;;;;;5034479;28;20136;-71
2022/09/15 04:21:00;;;;;;;5.00;3.33;;;14.00;97.20;;;;;;5027197;28;20049;-71
2022/09/15 04:23:26;;;;;;;5.13;3.53;;;14.00;97.30;;;;;;5035095;28;20051;-71
2022/09/15 04:26:01;;;;;;;5.50;3.25;;;14.00;97.20;;;;;;5037277;28;20027;-72
2022/09/15 04:28:30;;;;;;;4.95;3.20;;;14.00;97.30;;;;;;5032749;28;20033;-71
2022/09/15 04:31:08;;;;;;;6.65;3.55;;;14.00;97.40;;;;;;5034534;28;20033;-71
2022/09/15 04:33:34;;;;;;;6.95;3.60;;;14.00;97.30;;;;;;5038590;28;20127;-71
2022/09/15 04:36:06;;;;;;;7.70;3.47;;;14.00;97.30;;;;;;5035750;28;20705;-72
2022/09/15 04:38:32;;;;;;;5.60;3.50;;;14.00;97.30;;;;;;5037754;28;20432;-72
2022/09/15 04:40:58;;;;;;;4.13;2.97;;;14.00;97.20;;;;;;5035767;28;20045;-72
2022/09/15 04:43:25;;;;;;;7.75;3.63;;;14.00;97.20;;;;;;5044065;28;20156;-72
2022/09/15 04:45:51;;;;;;;5.90;3.60;;;13.90;97.30;;;;;;5042321;28;20029;-72
2022/09/15 04:48:16;;;;;;;6.82;3.53;;;13.90;97.40;;;;;;5040004;28;20184;-73
2022/09/15 04:50:42;;;;;;;6.45;3.85;;;13.90;97.30;;;;;;5039414;28;20036;-71
2022/09/15 04:53:08;;;;;;;13.70;4.60;;;13.90;97.50;;;;;;5036348;28;20045;-71
2022/09/15 04:55:34;;;;;;;9.23;4.25;;;13.90;97.70;;;;;;5038030;28;20040;-71
2022/09/15 04:58:01;;;;;;;5.53;3.75;;;14.00;97.70;;;;;;5033222;28;20130;-72
2022/09/15 05:00:28;;;;;;;8.07;4.05;;;13.90;97.70;;;;;;5039082;28;20021;-72
2022/09/15 05:02:54;;;;;;;7.55;4.30;;;13.90;97.70;;;;;;5042828;28;20115;-72
2022/09/15 05:05:20;;;;;;;9.10;5.03;;;14.00;97.80;;;;;;5033927;28;20160;-73
2022/09/15 05:07:47;;;;;;;9.55;4.38;;;14.00;97.70;;;;;;5040587;28;20119;-71
2022/09/15 05:10:13;;;;;;;14.32;5.03;;;14.00;97.80;;;;;;5036752;28;20041;-72
2022/09/15 05:12:39;;;;;;;7.00;3.85;;;14.10;97.90;;;;;;5037836;28;20480;-72
2022/09/15 05:15:05;;;;;;;11.50;4.40;;;14.10;97.80;;;;;;5037289;28;20122;-72
2022/09/15 05:17:32;;;;;;;5.78;3.90;;;14.20;97.90;;;;;;5036200;28;20444;-71
2022/09/15 05:20:00;;;;;;;6.95;3.47;;;14.20;97.80;;;;;;5042297;28;20217;-70
2022/09/15 05:22:27;;;;;;;6.82;4.40;;;14.10;97.60;;;;;;5033787;28;20037;-71
2022/09/15 05:24:53;;;;;;;8.32;4.05;;;14.20;97.70;;;;;;5040059;28;20144;-71
2022/09/15 05:27:19;;;;;;;8.52;4.18;;;14.20;97.70;;;;;;5038755;28;20199;-70
2022/09/15 05:29:44;;;;;;;9.73;4.00;;;14.20;97.80;;;;;;5037700;28;20496;-71
2022/09/15 05:32:10;;;;;;;11.50;4.85;;;14.20;97.80;;;;;;5034659;28;20041;-71
2022/09/15 05:34:36;;;;;;;7.25;4.53;;;14.30;98.00;;;;;;5036048;28;20025;-71
2022/09/15 05:37:02;;;;;;;10.68;4.65;;;14.40;97.90;;;;;;5035654;28;20044;-71
2022/09/15 05:39:28;;;;;;;9.80;4.72;;;14.40;97.80;;;;;;5041557;28;20048;-71
2022/09/15 05:41:54;;;;;;;9.68;4.57;;;14.50;97.80;;;;;;5040403;28;20032;-71
2022/09/15 05:44:22;;;;;;;11.25;4.30;;;14.50;97.80;;;;;;5039182;28;20025;-72
2022/09/15 05:46:48;;;;;;;9.80;4.22;;;14.50;97.80;;;;;;5038180;28;20106;-71
2022/09/15 05:49:14;;;;;;;8.68;4.25;;;14.60;97.80;;;;;;5036288;28;20486;-71
2022/09/15 05:51:40;;;;;;;11.30;4.38;;;14.60;97.60;;;;;;5035964;28;20068;-71
2022/09/15 05:54:06;;;;;;;8.30;4.40;;;14.70;97.60;;;;;;5036464;28;20116;-70
2022/09/15 05:56:32;;;;;;;8.80;4.38;;;14.80;97.50;;;;;;5038185;28;20072;-70
2022/09/15 05:58:58;;;;;;;8.38;3.80;;;14.90;97.50;;;;;;5041014;28;20068;-70
2022/09/15 06:01:26;;;;;;;7.05;3.70;;;14.90;97.10;;;;;;5039120;28;20033;-70
2022/09/15 06:03:53;;;;;;;6.30;3.17;;;15.00;97.10;;;;;;5039541;28;20033;-70
2022/09/15 06:06:20;;;;;;;6.38;3.95;;;15.10;96.90;;;;;;5036981;28;20037;-71
2022/09/15 06:08:49;;;;;;;9.13;3.72;;;15.20;96.70;;;;;;5036114;28;20114;-70
2022/09/15 06:11:19;;;;;;;9.35;3.63;;;15.30;96.50;;;;;;5033562;28;20512;-70
2022/09/15 06:13:46;;;;;;;8.02;3.15;;;15.40;96.10;;;;;;5031960;28;20096;-71
2022/09/15 06:16:18;;;;;;;5.35;2.80;;;15.40;95.90;;;;;;5039407;28;20041;-70
2022/09/15 06:18:44;;;;;;;11.30;3.60;;;15.50;95.60;;;;;;5040721;28;20067;-71
2022/09/15 06:21:14;;;;;;;10.40;3.80;;;15.50;95.50;;;;;;5037261;28;20522;-71
2022/09/15 06:23:41;;;;;;;4.90;3.22;;;15.60;95.30;;;;;;5038388;28;20017;-71
2022/09/15 06:26:15;;;;;;;9.35;3.35;;;15.60;95.20;;;;;;5030825;28;20069;-71
2022/09/15 06:29:06;;;;;;;6.93;3.25;;;15.70;95.10;;;;;;5034979;28;20059;-71
2022/09/15 06:31:32;;;;;;;10.52;3.22;;;15.80;94.80;;;;;;5029972;28;20037;-71
2022/09/15 06:33:59;;;;;;;12.18;3.10;;;15.90;94.70;;;;;;5034136;28;20037;-70
2022/09/15 06:36:28;;;;;;;10.40;3.20;;;15.90;94.30;;;;;;5036925;28;20025;-71
2022/09/15 06:38:55;;;;;;;5.47;2.60;;;16.00;94.40;;;;;;5037530;28;20022;-71
2022/09/15 06:41:21;;;;;;;7.63;2.90;;;16.10;94.40;;;;;;5037507;28;20036;-71
2022/09/15 06:43:48;;;;;;;7.28;3.50;;;16.20;94.30;;;;;;5036673;28;20036;-71
2022/09/15 06:46:16;;;;;;;6.93;3.33;;;16.30;94.00;;;;;;5034277;28;20175;-71
2022/09/15 06:48:42;;;;;;;4.05;2.60;;;16.40;93.80;;;;;;5034217;28;20029;-70
2022/09/15 06:51:10;;;;;;;6.78;2.88;;;16.50;93.70;;;;;;5030681;28;20485;-70
2022/09/15 06:53:37;;;;;;;6.65;2.45;;;16.50;93.40;;;;;;5037166;28;20037;-71
2022/09/15 06:56:04;;;;;;;5.13;2.42;;;16.60;93.40;;;;;;5038390;28;20385;-71
2022/09/15 06:58:30;;;;;;;6.00;2.70;;;16.60;93.10;;;;;;5038900;28;20086;-71
2022/09/15 07:01:11;;;;;;;6.50;2.70;;;16.70;92.80;;;;;;5036611;28;20535;-69
2022/09/15 07:03:38;;;;;;;6.28;2.75;;;16.80;92.60;;;;;;5039175;28;20108;-71
2022/09/15 07:06:05;;;;;;;8.00;2.60;;;16.80;92.60;;;;;;5033490;28;20040;-71
2022/09/15 07:08:31;;;;;;;5.43;2.60;;;16.90;92.50;;;;;;5035301;28;20593;-71
2022/09/15 07:10:57;;;;;;;6.82;2.70;;;16.90;92.30;;;;;;5029780;28;20041;-71
2022/09/15 07:13:24;;;;;;;8.13;2.45;;;16.90;92.30;;;;;;5042231;28;20032;-71
2022/09/15 07:15:50;;;;;;;7.95;2.70;;;16.90;92.20;;;;;;5042466;28;20481;-71
2022/09/15 07:18:16;;;;;;;7.05;2.92;;;16.90;92.30;;;;;;5038939;28;20509;-71
2022/09/15 07:20:42;;;;;;;7.85;2.47;;;17.00;92.10;;;;;;5038652;28;20039;-70
2022/09/15 07:23:08;;;;;;;7.05;2.05;;;17.00;92.00;;;;;;5035133;28;20037;-71
2022/09/15 07:25:34;;;;;;;6.63;2.30;;;17.00;92.30;;;;;;5037168;28;20809;-71
2022/09/15 07:28:01;;;;;;;6.95;2.90;;;17.00;92.30;;;;;;5032098;28;20084;-71
2022/09/15 07:30:27;;;;;;;6.05;2.58;;;17.10;92.20;;;;;;5038672;28;20083;-71
2022/09/15 07:32:55;;;;;;;4.10;2.20;;;17.10;92.00;;;;;;5041707;28;20021;-71
2022/09/15 07:35:20;;;;;;;6.68;2.83;;;17.20;92.00;;;;;;5040302;28;20044;-71
2022/09/15 07:37:50;;;;;;;5.72;2.80;;;17.20;91.90;;;;;;5039914;28;20033;-71
2022/09/15 07:40:17;;;;;;;6.50;2.40;;;17.20;91.80;;;;;;5036533;28;20144;-71
2022/09/15 07:42:43;;;;;;;7.05;2.47;;;17.20;91.70;;;;;;5036339;28;20032;-71
2022/09/15 07:45:12;;;;;;;6.85;2.80;;;17.20;91.70;;;;;;5033546;28;20091;-71
2022/09/15 07:47:38;;;;;;;7.60;2.65;;;17.30;91.50;;;;;;5034250;28;20041;-69
2022/09/15 07:50:05;;;;;;;7.07;2.97;;;17.30;91.20;;;;;;5038606;28;20033;-71
2022/09/15 07:52:31;;;;;;;5.82;2.35;;;17.30;91.30;;;;;;5041062;28;20135;-70
2022/09/15 07:54:56;;;;;;;6.63;2.20;;;17.30;91.40;;;;;;5039037;28;20036;-71
2022/09/15 07:57:22;;;;;;;4.60;2.33;;;17.40;91.30;;;;;;5038479;28;20029;-71
2022/09/15 07:59:48;;;;;;;5.72;2.00;;;17.50;91.30;;;;;;5037003;28;20509;-71
2022/09/15 08:02:16;;;;;;;6.32;2.28;;;17.50;91.40;;;;;;5037551;28;20036;-71
2022/09/15 08:04:43;;;;;;;3.05;2.08;;;17.60;91.20;;;;;;5034814;28;20029;-71
2022/09/15 08:07:09;;;;;;;3.90;1.98;;;17.70;91.20;;;;;;5033487;28;20029;-71
2022/09/15 08:09:36;;;;;;;7.00;2.22;;;17.80;90.60;;;;;;5046340;28;20037;-71
2022/09/15 08:12:02;;;;;;;9.50;2.80;;;17.80;90.60;;;;;;5043928;28;20108;-71
2022/09/15 08:14:30;;;;;;;5.70;2.17;;;17.90;90.00;;;;;;5043851;28;20040;-70
2022/09/15 08:16:59;;;;;;;7.15;2.53;;;18.00;90.00;;;;;;5035556;28;20035;-71
2022/09/15 08:19:26;;;;;;;6.10;1.95;;;18.10;89.30;;;;;;5038129;28;20021;-70
2022/09/15 08:21:52;;;;;;;5.10;1.90;;;18.10;89.30;;;;;;5038494;28;20706;-72
2022/09/15 08:24:18;;;;;;;5.30;1.98;;;18.20;89.80;;;;;;5038011;28;20029;-70
2022/09/15 08:26:45;;;;;;;7.22;2.78;;;18.30;89.20;;;;;;5037887;28;20134;-71
2022/09/15 08:29:12;;;;;;;5.80;2.33;;;18.40;87.90;;;;;;5044358;28;20032;-71
2022/09/15 08:31:38;;;;;;;6.35;2.50;;;18.30;87.40;;;;;;5043289;28;20055;-71
2022/09/15 08:34:05;;;;;;;4.82;2.35;;;18.30;87.80;;;;;;5040742;28;20047;-71
2022/09/15 08:36:34;;;;;;;8.43;2.42;;;18.30;88.10;;;;;;5041233;28;20131;-71
2022/09/15 08:39:00;;;;;;;4.43;2.35;;;18.40;87.60;;;;;;5037432;28;20677;-71
2022/09/15 08:41:34;;;;;;;5.25;2.58;;;18.30;87.80;;;;;;5037653;28;20029;-71
2022/09/15 08:44:21;;;;;;;4.55;2.28;;;18.30;88.40;;;;;;5034061;28;20033;-71
2022/09/15 08:47:15;;;;;;;4.90;2.13;;;18.30;88.60;;;;;;5044682;28;20143;-70
2022/09/15 08:49:59;;;;;;;8.88;2.17;;;18.40;88.70;;;;;;5039534;28;20456;-71
2022/09/15 08:52:31;;;;;;;3.90;1.90;;;18.30;88.50;;;;;;5042812;28;20744;-71
2022/09/15 08:54:59;;;;;;;4.88;1.92;;;18.30;88.00;;;;;;5038820;28;20029;-71
2022/09/15 08:57:25;;;;;;;7.32;2.28;;;18.30;87.90;;;;;;5039311;28;20045;-71
2022/09/15 08:59:53;;;;;;;5.35;1.52;;;18.20;87.90;;;;;;5037901;28;20068;-71
2022/09/15 09:02:41;;;;;;;4.70;1.70;;;18.20;87.40;;;;;;5040302;28;20021;-71
2022/09/15 09:05:19;;;;;;;5.35;1.40;;;18.10;87.60;;;;;;5038546;28;20033;-71
2022/09/15 09:08:09;;;;;;;5.72;1.98;;;18.20;87.60;;;;;;5044507;28;20044;-72
2022/09/15 09:10:50;;;;;;;4.25;1.75;;;18.30;87.80;;;;;;5037187;28;20400;-71
2022/09/15 09:13:52;;;;;;;5.88;1.60;;;18.40;87.10;;;;;;5039973;28;20033;-70
2022/09/15 09:16:36;;;;;;;4.57;1.90;;;18.40;86.70;;;;;;5041947;28;20156;-71
2022/09/15 09:19:27;;;;;;;4.28;1.63;;;18.50;87.70;;;;;;5035756;28;20033;-71
2022/09/15 09:22:15;;;;;;;2.03;1.10;;;18.70;87.60;;;;;;5037424;28;20030;-71
2022/09/15 09:24:48;;;;;;;4.95;1.35;;;18.80;85.40;;;;;;5038780;28;20120;-71
2022/09/15 09:27:19;;;;;;;3.80;1.15;;;18.80;85.10;;;;;;5042984;28;20393;-71
2022/09/15 09:29:48;;;;;;;3.00;1.25;;;18.90;85.00;;;;;;5042796;28;20476;-71
2022/09/15 09:32:39;;;;;;;3.72;1.48;;;19.00;84.10;;;;;;5039775;28;20060;-70
2022/09/15 09:35:28;;;;;;;3.50;1.38;;;19.00;84.70;;;;;;5038842;28;20037;-71
2022/09/15 09:37:55;;;;;;;7.10;1.60;;;19.10;84.30;;;;;;5037345;28;20036;-71
2022/09/15 09:40:21;;;;;;;3.53;1.17;;;19.10;84.10;;;;;;5036655;28;20444;-71
2022/09/15 09:42:47;;;;;;;5.47;1.67;;;19.20;83.10;;;;;;5040201;28;20029;-71
2022/09/15 09:45:15;;;;;;;3.72;1.10;;;19.30;82.90;;;;;;5043058;28;20485;-71
2022/09/15 09:47:41;;;;;;;5.72;1.10;;;19.40;82.70;;;;;;5042425;28;20024;-71
2022/09/15 09:50:38;;;;;;;6.13;1.65;;;19.60;81.60;;;;;;5039698;28;20083;-71
2022/09/15 09:53:27;;;;;;;6.63;1.10;;;19.60;80.60;;;;;;5041757;28;20049;-71
2022/09/15 09:56:13;;;;;;;2.15;0.88;;;19.50;80.00;;;;;;5037718;28;20037;-71
2022/09/15 09:58:39;;;;;;;5.05;1.30;;;19.50;79.20;;;;;;5033199;28;20681;-71
2022/09/15 10:01:13;;;;;;;5.50;1.02;;;19.50;79.30;;;;;;5036932;28;20037;-71
2022/09/15 10:03:42;;;;;;;4.05;1.05;;;19.50;79.80;;;;;;5043310;28;20440;-71
2022/09/15 10:06:16;;;;;;;3.45;1.00;;;19.60;79.80;;;;;;5040918;28;20103;-71
2022/09/15 10:09:15;;;;;;;3.80;1.10;;;19.70;78.80;;;;;;5040573;28;20040;-70
2022/09/15 10:11:51;;;;;;;6.63;1.05;;;19.80;78.30;;;;;;5039958;28;20055;-71
2022/09/15 10:14:20;;;;;;;;;;;20.00;78.70;;;;;;5036305;28;20033;-71
2022/09/15 10:17:01;;;;;;;6.10;1.40;;;20.20;77.70;;;;;;5038643;28;19912;-71
2022/09/15 10:19:29;;;;;;;3.75;1.20;;;20.30;75.90;;;;;;5035104;28;20107;-71
2022/09/15 10:21:56;;;;;;;4.50;1.10;;;20.40;77.00;;;;;;5039211;28;20129;-71
2022/09/15 10:24:34;;;;;;;3.53;1.02;;;20.50;77.50;;;;;;5041261;28;20033;-71
2022/09/15 10:27:24;;;;;;;3.65;1.02;;;20.60;76.10;;;;;;5038978;28;20457;-71
2022/09/15 10:29:50;;;;;;;3.78;0.90;;;20.80;76.10;;;;;;5036918;28;20033;-71
2022/09/15 10:32:26;;;;;;;5.18;1.33;;;20.90;76.30;;;;;;5036605;28;20099;-71
2022/09/15 10:35:13;;;;;;;4.28;1.00;;;21.00;73.00;;;;;;5035025;28;20033;-70
2022/09/15 10:37:48;;;;;;;10.35;0.90;;;21.10;71.20;;;;;;5036075;28;20033;-71
2022/09/15 10:40:36;;;;;;;3.08;0.88;;;21.10;70.50;;;;;;5041209;28;20029;-71
2022/09/15 10:43:18;;;;;;;5.45;1.38;;;21.10;70.60;;;;;;5039187;28;20025;-71
2022/09/15 10:45:47;;;;;;;4.07;1.00;;;21.00;69.70;;;;;;5040330;28;20025;-71
2022/09/15 10:48:31;;;;;;;2.67;0.70;;;20.90;69.20;;;;;;5037180;28;20036;-71
2022/09/15 10:51:21;;;;;;;2.00;0.90;;;20.90;69.90;;;;;;5035133;28;20035;-71
2022/09/15 10:53:46;;;;;;;4.65;0.95;;;20.80;69.90;;;;;;5035827;28;20029;-71
2022/09/15 10:56:21;;;;;;;3.78;1.10;;;20.60;69.60;;;;;;5032202;28;20029;-71
2022/09/15 10:58:55;;;;;;;4.05;0.80;;;20.60;71.00;;;;;;5039230;28;20033;-70
2022/09/15 11:01:24;;;;;;;3.08;0.80;;;20.70;70.60;;;;;;5040082;28;20400;-72
2022/09/15 11:04:02;;;;;;;4.85;1.02;;;20.70;68.40;;;;;;5039134;28;20068;-72
2022/09/15 11:06:58;;;;;;;3.95;1.00;;;20.80;68.00;;;;;;5036919;28;20068;-70
2022/09/15 11:09:40;;;;;;;2.08;0.80;;;20.80;67.20;;;;;;5036950;28;20025;-71
2022/09/15 11:12:23;;;;;;;4.75;0.85;;;20.70;67.30;;;;;;5033217;28;20048;-71
2022/09/15 11:15:14;;;;;;;1.33;0.55;;;20.60;66.90;;;;;;5035469;28;20040;-71
2022/09/15 11:18:02;;;;;;;3.20;0.70;;;20.50;66.20;;;;;;5039969;28;20067;-71
2022/09/15 11:20:53;;;;;;;5.63;0.85;;;20.50;66.50;;;;;;5037548;28;20052;-71
2022/09/15 11:23:38;;;;;;;1.60;0.68;;;20.50;68.40;;;;;;5038703;28;20122;-70
2022/09/15 11:26:16;;;;;;;6.60;1.35;;;20.50;69.50;;;;;;5035661;28;20267;-71
2022/09/15 11:28:53;;;;;;;3.47;1.10;;;20.60;69.30;;;;;;5035958;28;20025;-71
2022/09/15 11:31:19;;;;;;;4.97;1.02;;;20.70;68.50;;;;;;5034509;28;20029;-71
2022/09/15 11:33:54;;;;;;;3.40;1.20;;;20.80;67.90;;;;;;5033215;28;20489;-70
2022/09/15 11:36:42;;;;;;;3.17;0.63;;;20.70;69.30;;;;;;5036520;28;20029;-70
2022/09/15 11:39:22;;;;;;;5.30;0.98;;;20.70;69.20;;;;;;5038604;28;20119;-70
2022/09/15 11:41:59;;;;;;;2.70;0.98;;;20.70;68.20;;;;;;5036433;28;20032;-71
2022/09/15 11:44:38;;;;;;;6.43;1.30;;;20.60;68.90;;;;;;5037824;28;20055;-71
2022/09/15 11:47:21;;;;;;;3.33;0.90;;;20.50;69.60;;;;;;5033898;28;20482;-70
2022/09/15 11:50:09;;;;;;;1.90;0.80;;;20.50;69.30;;;;;;5035518;28;20037;-71
2022/09/15 11:53:02;;;;;;;2.63;0.73;;;20.40;69.90;;;;;;5034038;28;20075;-70
2022/09/15 11:55:50;;;;;;;3.33;0.80;;;20.30;69.70;;;;;;5037205;28;20029;-70
2022/09/15 11:58:28;;;;;;;2.30;0.60;;;20.30;68.30;;;;;;5038942;28;20153;-71
2022/09/15 12:01:11;;;;;;;2.35;0.70;;;20.20;68.40;;;;;;5036508;28;20029;-71
2022/09/15 12:03:57;;;;;;;2.20;0.88;;;20.20;67.60;;;;;;5038586;28;20112;-70
2022/09/15 12:06:28;;;;;;;1.73;0.70;;;20.20;67.60;;;;;;5035597;28;20045;-71
2022/09/15 12:09:00;;;;;;;2.38;1.00;;;20.30;67.50;;;;;;5032993;28;20706;-70
2022/09/15 12:11:29;;;;;;;5.20;0.65;;;20.40;66.50;;;;;;5033288;28;20045;-70
2022/09/15 12:13:56;;;;;;;1.88;0.60;;;20.40;66.90;;;;;;5037751;28;20626;-70
2022/09/15 12:16:23;;;;;;;5.40;0.88;;;20.40;66.70;;;;;;5039027;28;20032;-70
2022/09/15 12:19:13;;;;;;;2.00;0.63;;;20.40;68.10;;;;;;5037060;28;20037;-71
2022/09/15 12:22:16;;;;;;;1.58;0.90;;;20.40;67.70;;;;;;5035591;28;20021;-71
2022/09/15 12:24:50;;;;;;;4.60;1.13;;;20.50;67.80;;;;;;5035241;28;20914;-70
2022/09/15 12:27:18;;;;;;;2.50;0.55;;;20.50;66.60;;;;;;5034752;28;20038;-71
2022/09/15 12:29:48;;;;;;;2.75;1.00;;;20.30;67.00;;;;;;5033632;28;20114;-71
2022/09/15 12:32:32;;;;;;;2.40;0.80;;;20.20;67.40;;;;;;5036717;28;20041;-71
2022/09/15 12:35:04;;;;;;;2.28;1.00;;;20.00;68.10;;;;;;5037960;28;20033;-71
2022/09/15 12:37:36;;;;;;;2.88;0.80;;;19.90;69.40;;;;;;5037686;28;20049;-71
2022/09/15 12:40:04;;;;;;;2.58;0.90;;;19.90;68.30;;;;;;5039203;28;20388;-72
2022/09/15 12:42:33;;;;;;;1.58;0.82;;;19.80;68.90;;;;;;5037476;28;20032;-71
2022/09/15 12:45:02;;;;;;;4.53;1.15;;;19.70;69.80;;;;;;5033587;28;20037;-71
2022/09/15 12:47:28;;;;;;;1.77;0.80;;;19.70;70.90;;;;;;5034776;28;20033;-71
2022/09/15 12:49:58;;;;;;;2.67;0.70;;;19.60;70.90;;;;;;5031304;28;20040;-71
2022/09/15 12:52:24;;;;;;;5.22;0.80;;;19.60;72.40;;;;;;5040849;28;20048;-70
2022/09/15 12:54:59;;;;;;;4.32;0.82;;;19.60;74.20;;;;;;5044091;28;20083;-70
2022/09/15 12:57:35;;;;;;;6.47;0.98;;;19.60;73.50;;;;;;5042457;28;20467;-71
2022/09/15 13:00:32;;;;;;;4.63;0.90;;;19.70;73.20;;;;;;5039415;28;20029;-71
2022/09/15 13:02:59;;;;;;;3.70;0.90;;;19.80;72.10;;;;;;5044460;28;20048;-70
2022/09/15 13:05:40;;;;;;;6.35;1.15;;;19.90;72.10;;;;;;5038535;28;20116;-70
2022/09/15 13:08:33;;;;;;;3.13;1.27;;;20.00;71.20;;;;;;5034666;28;20067;-70
2022/09/15 13:11:12;;;;;;;6.15;1.00;;;20.10;70.60;;;;;;5040192;28;20716;-69
2022/09/15 13:13:50;;;;;;;5.40;1.00;;;20.10;69.00;;;;;;5038445;28;20044;-71